createdAt,value
2017-07-16T00:00:13.039Z,11.80
2017-07-16T00:02:41.455Z,11.80
2017-07-16T00:05:10.680Z,11.80
2017-07-16T00:07:39.097Z,11.80
2017-07-16T00:10:07.544Z,11.80
2017-07-16T00:12:35.975Z,11.60
2017-07-16T00:15:04.393Z,11.50
2017-07-16T00:17:33.515Z,11.70
2017-07-16T00:20:01.947Z,11.70
2017-07-16T00:22:30.377Z,11.70
2017-07-16T00:24:58.825Z,11.60
2017-07-16T00:27:28.140Z,11.70
2017-07-16T00:29:56.834Z,11.60
2017-07-16T00:32:25.259Z,11.50
2017-07-16T00:34:53.700Z,11.40
2017-07-16T00:37:22.208Z,11.50
2017-07-16T00:39:50.640Z,11.40
2017-07-16T00:42:19.840Z,11.20
2017-07-16T00:44:48.699Z,11.20
2017-07-16T00:47:17.116Z,11.20
2017-07-16T00:49:45.871Z,11.20
2017-07-16T00:52:14.714Z,11.10
2017-07-16T00:54:44.612Z,11.20
2017-07-16T00:57:13.820Z,11.20
2017-07-16T00:59:42.256Z,11.20
2017-07-16T01:02:10.678Z,11.30
2017-07-16T01:04:39.124Z,11.20
2017-07-16T01:07:07.820Z,11.30
2017-07-16T01:09:36.243Z,11.30
2017-07-16T01:12:04.687Z,11.20
2017-07-16T01:14:33.395Z,11.20
2017-07-16T01:17:02.583Z,11.20
2017-07-16T01:19:31.795Z,11.20
2017-07-16T01:22:00.244Z,11.10
2017-07-16T01:24:29.684Z,11.10
2017-07-16T01:26:58.120Z,11.10
2017-07-16T01:29:26.607Z,11.10
2017-07-16T01:31:55.056Z,11.10
2017-07-16T01:34:24.605Z,11.20
2017-07-16T01:36:53.019Z,11.20
2017-07-16T01:39:21.451Z,11.20
2017-07-16T01:41:49.879Z,11.30
2017-07-16T01:44:18.352Z,11.30
2017-07-16T01:46:47.559Z,11.30
2017-07-16T01:49:16.743Z,11.20
2017-07-16T01:51:45.599Z,11.10
2017-07-16T01:54:14.015Z,11.20
2017-07-16T01:56:42.521Z,11.10
2017-07-16T01:59:11.090Z,11.10
2017-07-16T02:01:40.296Z,11.20
2017-07-16T02:04:09.525Z,11.20
2017-07-16T02:06:37.940Z,11.30
2017-07-16T02:09:06.376Z,11.30
2017-07-16T02:11:34.851Z,11.40
2017-07-16T02:14:03.279Z,11.30
2017-07-16T02:16:31.707Z,11.30
2017-07-16T02:19:00.139Z,11.30
2017-07-16T02:21:28.571Z,11.40
2017-07-16T02:23:56.986Z,11.30
2017-07-16T02:26:25.434Z,11.40
2017-07-16T02:28:54.111Z,11.40
2017-07-16T02:31:23.421Z,11.40
2017-07-16T02:33:51.843Z,11.50
2017-07-16T02:36:20.288Z,11.50
2017-07-16T02:38:48.719Z,11.50
2017-07-16T02:41:17.160Z,11.50
2017-07-16T02:43:46.005Z,11.40
2017-07-16T02:46:14.452Z,11.40
2017-07-16T02:48:42.999Z,11.40
2017-07-16T02:51:12.183Z,11.40
2017-07-16T02:53:41.393Z,11.40
2017-07-16T02:56:10.583Z,11.40
2017-07-16T02:58:39.787Z,11.40
2017-07-16T03:01:08.216Z,11.30
2017-07-16T03:03:36.651Z,11.40
2017-07-16T03:06:05.846Z,11.50
2017-07-16T03:08:35.032Z,11.40
2017-07-16T03:11:03.466Z,11.40
2017-07-16T03:13:31.883Z,11.40
2017-07-16T03:16:01.028Z,11.40
2017-07-16T03:18:29.477Z,11.50
2017-07-16T03:20:58.157Z,11.50
2017-07-16T03:23:26.608Z,11.50
2017-07-16T03:25:55.051Z,11.50
2017-07-16T03:28:24.275Z,11.50
2017-07-16T03:30:52.692Z,11.40
2017-07-16T03:33:21.124Z,11.50
2017-07-16T03:35:49.553Z,11.50
2017-07-16T03:38:17.988Z,11.50
2017-07-16T03:40:46.416Z,11.60
2017-07-16T03:43:14.857Z,11.70
2017-07-16T03:45:43.296Z,11.60
2017-07-16T03:48:11.708Z,11.60
2017-07-16T03:50:40.144Z,11.70
2017-07-16T03:53:08.591Z,11.70
2017-07-16T03:55:37.032Z,11.70
2017-07-16T03:58:06.223Z,11.70
2017-07-16T04:00:35.064Z,11.80
2017-07-16T04:03:03.485Z,11.80
2017-07-16T04:05:32.025Z,11.80
2017-07-16T04:08:00.456Z,11.90
2017-07-16T04:10:28.887Z,12.00
2017-07-16T04:12:57.589Z,12.10
2017-07-16T04:15:27.044Z,12.10
2017-07-16T04:17:56.269Z,12.10
2017-07-16T04:20:24.713Z,12.10
2017-07-16T04:22:53.137Z,12.10
2017-07-16T04:25:21.579Z,12.10
2017-07-16T04:27:50.072Z,12.10
2017-07-16T04:30:19.271Z,12.10
2017-07-16T04:32:47.705Z,12.10
2017-07-16T04:35:16.125Z,12.20
2017-07-16T04:37:44.833Z,12.20
2017-07-16T04:40:13.304Z,12.20
2017-07-16T04:42:41.753Z,12.20
2017-07-16T04:45:10.174Z,12.20
2017-07-16T04:47:38.597Z,12.20
2017-07-16T04:50:07.107Z,12.20
2017-07-16T04:52:35.525Z,12.30
2017-07-16T04:55:03.964Z,12.40
2017-07-16T04:57:32.547Z,12.50
2017-07-16T05:00:01.072Z,12.50
2017-07-16T05:02:29.579Z,12.50
2017-07-16T05:04:58.024Z,12.70
2017-07-16T05:07:27.218Z,12.70
2017-07-16T05:09:55.657Z,12.90
2017-07-16T05:12:24.107Z,13.10
2017-07-16T05:14:52.524Z,13.10
2017-07-16T05:17:21.012Z,13.30
2017-07-16T05:19:49.470Z,13.30
2017-07-16T05:22:17.911Z,13.40
2017-07-16T05:24:47.120Z,13.50
2017-07-16T05:27:15.603Z,13.60
2017-07-16T05:29:44.907Z,13.60
2017-07-16T05:32:13.395Z,13.80
2017-07-16T05:34:41.839Z,13.80
2017-07-16T05:37:10.268Z,13.90
2017-07-16T05:39:38.703Z,14.10
2017-07-16T05:42:07.164Z,14.30
2017-07-16T05:44:35.608Z,14.50
2017-07-16T05:47:04.047Z,14.50
2017-07-16T05:49:32.479Z,14.60
2017-07-16T05:52:00.976Z,14.60
2017-07-16T05:54:29.396Z,14.70
2017-07-16T05:56:57.840Z,14.70
2017-07-16T05:59:26.274Z,14.70
2017-07-16T06:01:55.471Z,14.70
2017-07-16T06:04:24.675Z,14.70
2017-07-16T06:06:53.876Z,14.70
2017-07-16T06:09:23.067Z,14.70
2017-07-16T06:11:52.274Z,14.70
2017-07-16T06:14:20.700Z,14.50
2017-07-16T06:16:49.143Z,14.60
2017-07-16T06:19:18.332Z,14.50
2017-07-16T06:21:47.539Z,14.60
2017-07-16T06:24:15.979Z,14.50
2017-07-16T06:26:44.425Z,14.70
2017-07-16T06:29:14.311Z,14.80
2017-07-16T06:31:43.511Z,15.00
2017-07-16T06:34:12.714Z,15.10
2017-07-16T06:36:41.900Z,15.20
2017-07-16T06:39:12.000Z,15.30
2017-07-16T06:41:40.435Z,15.30
2017-07-16T06:44:08.963Z,15.30
2017-07-16T06:46:37.479Z,15.40
2017-07-16T06:49:05.909Z,15.70
2017-07-16T06:51:34.352Z,15.70
2017-07-16T06:54:03.551Z,16.10
2017-07-16T06:56:31.996Z,16.30
2017-07-16T06:59:00.506Z,16.50
2017-07-16T07:01:29.724Z,16.80
2017-07-16T07:03:58.139Z,17.00
2017-07-16T07:06:26.586Z,17.30
2017-07-16T07:08:55.026Z,17.30
2017-07-16T07:11:23.452Z,17.60
2017-07-16T07:13:51.904Z,18.00
2017-07-16T07:16:20.591Z,18.20
2017-07-16T07:18:49.800Z,18.40
2017-07-16T07:21:18.813Z,18.60
2017-07-16T07:23:47.439Z,18.70
2017-07-16T07:26:15.895Z,18.70
2017-07-16T07:28:44.320Z,18.50
2017-07-16T07:31:12.785Z,18.30
2017-07-16T07:33:41.603Z,18.50
2017-07-16T07:36:10.057Z,18.50
2017-07-16T07:38:38.493Z,19.10
2017-07-16T07:41:06.911Z,19.40
2017-07-16T07:43:35.351Z,19.40
2017-07-16T07:46:03.782Z,19.40
2017-07-16T07:48:31.869Z,19.50
2017-07-16T07:51:00.286Z,19.60
2017-07-16T07:53:28.841Z,19.60
2017-07-16T07:55:57.240Z,19.70
2017-07-16T07:58:26.446Z,19.30
2017-07-16T08:00:55.759Z,19.40
2017-07-16T08:03:25.983Z,19.30
2017-07-16T08:05:54.419Z,19.20
2017-07-16T08:08:23.174Z,19.30
2017-07-16T08:10:51.601Z,19.10
2017-07-16T08:13:20.444Z,19.20
2017-07-16T08:15:48.911Z,19.20
2017-07-16T08:18:17.348Z,19.30
2017-07-16T08:20:45.792Z,19.40
2017-07-16T08:23:14.225Z,19.50
2017-07-16T08:25:42.673Z,19.40
2017-07-16T08:28:11.094Z,19.80
2017-07-16T08:30:39.521Z,19.80
2017-07-16T08:33:07.957Z,20.10
2017-07-16T08:35:36.380Z,20.30
2017-07-16T08:38:04.859Z,20.60
2017-07-16T08:40:33.279Z,20.90
2017-07-16T08:43:01.731Z,21.10
2017-07-16T08:45:30.174Z,21.50
2017-07-16T08:47:58.630Z,21.50
2017-07-16T08:50:27.113Z,21.70
2017-07-16T08:52:56.212Z,21.60
2017-07-16T08:55:24.683Z,21.50
2017-07-16T08:57:53.104Z,21.70
2017-07-16T09:00:21.556Z,21.90
2017-07-16T09:02:50.000Z,22.00
2017-07-16T09:05:18.431Z,21.70
2017-07-16T09:07:46.872Z,21.70
2017-07-16T09:10:15.576Z,21.50
2017-07-16T09:12:44.008Z,21.50
2017-07-16T09:15:12.448Z,21.70
2017-07-16T09:17:40.886Z,21.60
2017-07-16T09:20:09.570Z,21.60
2017-07-16T09:22:37.992Z,21.40
2017-07-16T09:25:06.452Z,21.50
2017-07-16T09:27:34.980Z,21.60
2017-07-16T09:30:03.089Z,21.80
2017-07-16T09:32:31.499Z,21.90
2017-07-16T09:34:59.940Z,22.10
2017-07-16T09:37:28.397Z,22.00
2017-07-16T09:39:57.083Z,21.10
2017-07-16T09:42:25.530Z,21.10
2017-07-16T09:44:53.957Z,20.90
2017-07-16T09:47:22.806Z,20.90
2017-07-16T09:49:51.224Z,20.90
2017-07-16T09:52:19.674Z,21.00
2017-07-16T09:54:48.092Z,21.10
2017-07-16T09:57:16.524Z,21.10
2017-07-16T09:59:44.977Z,21.00
2017-07-16T10:02:13.809Z,21.10
2017-07-16T10:04:42.252Z,21.20
2017-07-16T10:07:10.670Z,21.10
2017-07-16T10:09:39.100Z,21.20
2017-07-16T10:12:07.522Z,21.50
2017-07-16T10:14:36.014Z,21.60
2017-07-16T10:17:04.869Z,21.70
2017-07-16T10:19:34.063Z,21.60
2017-07-16T10:22:02.774Z,21.50
2017-07-16T10:24:31.478Z,21.20
2017-07-16T10:26:59.899Z,20.60
2017-07-16T10:29:29.088Z,20.70
2017-07-16T10:31:57.848Z,20.90
2017-07-16T10:34:26.265Z,21.30
2017-07-16T10:36:55.410Z,21.60
2017-07-16T10:39:24.088Z,21.60
2017-07-16T10:41:52.517Z,21.50
2017-07-16T10:44:21.360Z,21.20
2017-07-16T10:46:50.450Z,21.40
2017-07-16T10:49:19.268Z,21.40
2017-07-16T10:51:47.720Z,21.90
2017-07-16T10:54:16.559Z,21.80
2017-07-16T10:56:45.403Z,22.00
2017-07-16T10:59:14.215Z,22.30
2017-07-16T11:01:42.664Z,22.70
2017-07-16T11:04:11.472Z,22.70
2017-07-16T11:06:40.339Z,22.60
2017-07-16T11:09:08.775Z,26.40
2017-07-16T11:11:37.608Z,22.10
2017-07-16T11:14:06.454Z,22.20
2017-07-16T11:16:35.539Z,22.30
2017-07-16T11:19:03.976Z,22.30
2017-07-16T11:21:32.792Z,22.20
2017-07-16T11:24:01.641Z,22.10
2017-07-16T11:26:30.475Z,22.40
2017-07-16T11:28:58.908Z,22.70
2017-07-16T11:31:27.615Z,22.90
2017-07-16T11:33:56.067Z,23.20
2017-07-16T11:36:24.551Z,23.50
2017-07-16T11:38:52.984Z,23.50
2017-07-16T11:41:21.424Z,23.60
2017-07-16T11:43:49.870Z,24.00
2017-07-16T11:46:18.556Z,24.40
2017-07-16T11:48:47.663Z,24.50
2017-07-16T11:51:16.144Z,24.30
2017-07-16T11:53:45.661Z,24.50
2017-07-16T11:56:14.139Z,24.80
2017-07-16T11:58:42.572Z,24.50
2017-07-16T12:01:11.031Z,24.10
2017-07-16T12:03:39.535Z,24.30
2017-07-16T12:06:07.976Z,24.90
2017-07-16T12:08:36.406Z,25.10
2017-07-16T12:11:04.849Z,25.30
2017-07-16T12:13:33.283Z,24.90
2017-07-16T12:16:01.791Z,24.70
2017-07-16T12:18:30.239Z,24.60
2017-07-16T12:20:58.699Z,24.70
2017-07-16T12:23:27.240Z,24.90
2017-07-16T12:25:55.843Z,25.00
2017-07-16T12:28:25.052Z,25.40
2017-07-16T12:30:54.362Z,25.40
2017-07-16T12:33:23.250Z,25.80
2017-07-16T12:35:52.446Z,25.70
2017-07-16T12:38:21.640Z,25.70
2017-07-16T12:40:50.847Z,26.00
2017-07-16T12:43:20.044Z,25.70
2017-07-16T12:45:48.767Z,25.60
2017-07-16T12:48:17.228Z,25.30
2017-07-16T12:50:46.414Z,25.40
2017-07-16T12:53:15.239Z,25.30
2017-07-16T12:55:44.769Z,25.20
2017-07-16T12:58:13.206Z,25.20
2017-07-16T13:00:41.973Z,25.40
2017-07-16T13:03:10.446Z,25.60
2017-07-16T13:05:38.924Z,25.40
2017-07-16T13:08:07.353Z,25.50
2017-07-16T13:10:35.920Z,25.50
2017-07-16T13:13:05.135Z,25.70
2017-07-16T13:15:33.707Z,25.70
2017-07-16T13:18:02.179Z,26.10
2017-07-16T13:20:31.383Z,26.70
2017-07-16T13:22:59.824Z,26.70
2017-07-16T13:25:28.257Z,26.40
2017-07-16T13:27:56.697Z,26.70
2017-07-16T13:30:25.797Z,25.70
2017-07-16T13:32:54.499Z,25.70
2017-07-16T13:35:22.926Z,25.70
2017-07-16T13:37:51.364Z,25.80
2017-07-16T13:40:19.812Z,25.40
2017-07-16T13:42:48.239Z,25.50
2017-07-16T13:45:17.067Z,25.20
2017-07-16T13:47:45.511Z,25.30
2017-07-16T13:50:13.952Z,25.20
2017-07-16T13:52:43.075Z,25.30
2017-07-16T13:55:11.524Z,25.80
2017-07-16T13:57:39.970Z,26.20
2017-07-16T14:00:09.144Z,26.30
2017-07-16T14:02:37.618Z,26.00
2017-07-16T14:05:06.110Z,26.00
2017-07-16T14:07:35.345Z,26.10
2017-07-16T14:10:03.807Z,26.10
2017-07-16T14:12:32.269Z,26.00
2017-07-16T14:15:01.546Z,25.40
2017-07-16T14:17:29.992Z,25.30
2017-07-16T14:19:59.472Z,25.90
2017-07-16T14:22:27.946Z,26.30
2017-07-16T14:24:57.139Z,26.60
2017-07-16T14:27:26.440Z,26.80
2017-07-16T14:29:55.643Z,27.50
2017-07-16T14:32:24.838Z,27.30
2017-07-16T14:34:54.200Z,27.60
2017-07-16T14:37:22.923Z,27.70
2017-07-16T14:39:51.363Z,28.40
2017-07-16T14:42:19.808Z,28.60
2017-07-16T14:44:48.253Z,28.60
2017-07-16T14:47:16.683Z,28.70
2017-07-16T14:49:45.140Z,28.70
2017-07-16T14:52:13.576Z,28.90
2017-07-16T14:54:42.125Z,28.40
2017-07-16T14:57:10.556Z,27.80
2017-07-16T14:59:38.982Z,27.60
2017-07-16T15:02:07.519Z,26.20
2017-07-16T15:04:35.985Z,26.20
2017-07-16T15:07:04.697Z,26.40
2017-07-16T15:09:33.148Z,26.40
2017-07-16T15:12:01.595Z,26.20
2017-07-16T15:14:30.053Z,26.80
2017-07-16T15:16:58.505Z,26.60
2017-07-16T15:19:26.971Z,26.50
2017-07-16T15:21:55.399Z,26.40
2017-07-16T15:24:23.835Z,26.40
2017-07-16T15:26:52.255Z,26.40
2017-07-16T15:29:20.690Z,26.30
2017-07-16T15:31:49.153Z,26.30
2017-07-16T15:34:17.596Z,26.10
2017-07-16T15:36:46.088Z,26.30
2017-07-16T15:39:14.517Z,26.30
2017-07-16T15:41:42.964Z,26.00
2017-07-16T15:44:11.391Z,25.80
2017-07-16T15:46:39.839Z,25.80
2017-07-16T15:49:08.293Z,26.00
2017-07-16T15:51:37.124Z,25.70
2017-07-16T15:54:05.989Z,25.70
2017-07-16T15:56:34.443Z,25.70
2017-07-16T15:59:02.897Z,25.30
2017-07-16T16:01:31.402Z,25.30
2017-07-16T16:04:00.076Z,25.40
2017-07-16T16:06:28.505Z,25.40
2017-07-16T16:08:57.207Z,25.50
2017-07-16T16:11:26.032Z,25.40
2017-07-16T16:13:54.466Z,25.30
2017-07-16T16:16:22.904Z,25.20
2017-07-16T16:18:51.409Z,25.10
2017-07-16T16:21:19.479Z,25.20
2017-07-16T16:23:47.915Z,25.10
2017-07-16T16:26:16.363Z,25.00
2017-07-16T16:28:45.496Z,25.10
2017-07-16T16:31:13.921Z,25.00
2017-07-16T16:33:42.368Z,25.00
2017-07-16T16:36:10.797Z,25.20
2017-07-16T16:38:39.266Z,25.20
2017-07-16T16:41:07.984Z,25.30
2017-07-16T16:43:36.850Z,25.00
2017-07-16T16:46:05.290Z,24.80
2017-07-16T16:48:34.113Z,24.70
2017-07-16T16:51:02.557Z,25.00
2017-07-16T16:53:31.746Z,25.10
2017-07-16T16:56:00.967Z,25.10
2017-07-16T16:58:29.720Z,25.10
2017-07-16T17:00:58.176Z,25.10
2017-07-16T17:03:26.612Z,25.10
2017-07-16T17:05:55.800Z,25.00
2017-07-16T17:08:24.992Z,25.00
2017-07-16T17:10:53.681Z,25.10
2017-07-16T17:13:22.129Z,25.00
2017-07-16T17:15:50.984Z,25.20
2017-07-16T17:18:19.857Z,25.20
2017-07-16T17:20:49.057Z,25.10
2017-07-16T17:23:17.898Z,25.20
2017-07-16T17:25:48.072Z,25.70
2017-07-16T17:28:16.907Z,25.70
2017-07-16T17:30:46.087Z,25.80
2017-07-16T17:33:14.907Z,25.50
2017-07-16T17:35:44.250Z,24.70
2017-07-16T17:38:13.488Z,24.70
2017-07-16T17:40:42.709Z,25.20
2017-07-16T17:43:11.927Z,24.90
2017-07-16T17:45:40.364Z,25.40
2017-07-16T17:48:08.810Z,25.60
2017-07-16T17:50:37.295Z,25.40
2017-07-16T17:53:05.852Z,24.70
2017-07-16T17:55:34.913Z,24.50
2017-07-16T17:58:03.358Z,24.10
2017-07-16T18:00:31.814Z,23.70
2017-07-16T18:03:00.508Z,23.50
2017-07-16T18:05:28.973Z,23.20
2017-07-16T18:07:58.317Z,23.00
2017-07-16T18:10:27.443Z,22.80
2017-07-16T18:12:55.888Z,22.60
2017-07-16T18:15:24.312Z,22.50
2017-07-16T18:17:53.031Z,22.50
2017-07-16T18:20:22.563Z,22.40
2017-07-16T18:22:50.998Z,22.30
2017-07-16T18:25:19.444Z,22.10
2017-07-16T18:27:47.873Z,22.10
2017-07-16T18:30:17.125Z,22.00
2017-07-16T18:32:45.570Z,22.00
2017-07-16T18:35:14.008Z,21.90
2017-07-16T18:37:42.455Z,21.90
2017-07-16T18:40:11.785Z,21.80
2017-07-16T18:42:40.249Z,21.70
2017-07-16T18:45:09.435Z,21.70
2017-07-16T18:47:38.020Z,21.60
2017-07-16T18:50:06.476Z,21.60
2017-07-16T18:52:35.685Z,19.20
2017-07-16T18:55:04.154Z,21.40
2017-07-16T18:57:33.378Z,21.40
2017-07-16T19:00:01.818Z,21.30
2017-07-16T19:02:30.392Z,21.10
2017-07-16T19:04:58.671Z,21.10
2017-07-16T19:07:27.153Z,21.00
2017-07-16T19:09:55.923Z,21.00
2017-07-16T19:12:24.442Z,21.00
2017-07-16T19:14:53.762Z,21.00
2017-07-16T19:17:22.338Z,20.90
2017-07-16T19:19:50.819Z,20.90
2017-07-16T19:22:20.075Z,20.80
2017-07-16T19:24:49.422Z,18.00
2017-07-16T19:27:17.945Z,20.70
2017-07-16T19:29:46.504Z,20.60
2017-07-16T19:32:15.091Z,20.50
2017-07-16T19:34:43.608Z,20.30
2017-07-16T19:37:12.145Z,20.30
2017-07-16T19:39:40.729Z,20.30
2017-07-16T19:42:10.204Z,20.20
2017-07-16T19:44:39.554Z,20.00
2017-07-16T19:47:08.095Z,19.80
2017-07-16T19:49:36.562Z,19.60
2017-07-16T19:52:05.001Z,19.60
2017-07-16T19:54:33.506Z,19.60
2017-07-16T19:57:02.763Z,16.90
2017-07-16T19:59:32.006Z,19.10
2017-07-16T20:02:00.464Z,19.00
2017-07-16T20:04:28.969Z,19.00
2017-07-16T20:06:57.833Z,18.90
2017-07-16T20:09:26.328Z,18.80
2017-07-16T20:11:54.804Z,18.80
2017-07-16T20:14:23.282Z,18.60
2017-07-16T20:16:51.699Z,18.60
2017-07-16T20:19:20.174Z,18.60
2017-07-16T20:21:48.609Z,18.30
2017-07-16T20:24:17.452Z,18.30
2017-07-16T20:26:45.890Z,18.20
2017-07-16T20:29:15.351Z,18.10
2017-07-16T20:31:44.840Z,18.10
2017-07-16T20:34:13.399Z,18.10
2017-07-16T20:36:41.847Z,18.10
2017-07-16T20:39:10.963Z,17.80
2017-07-16T20:41:40.225Z,18.00
2017-07-16T20:44:08.654Z,17.90
2017-07-16T20:46:37.148Z,17.80
2017-07-16T20:49:05.589Z,17.70
2017-07-16T20:51:34.807Z,17.60
2017-07-16T20:54:03.275Z,17.50
2017-07-16T20:56:31.702Z,17.50
2017-07-16T20:59:00.148Z,17.60
2017-07-16T21:01:29.378Z,17.50
2017-07-16T21:03:57.821Z,17.50
2017-07-16T21:06:27.018Z,17.40
2017-07-16T21:08:55.845Z,17.20
2017-07-16T21:11:25.061Z,14.10
2017-07-16T21:13:53.494Z,17.10
2017-07-16T21:16:22.840Z,17.00
2017-07-16T21:18:51.273Z,16.90
2017-07-16T21:21:20.513Z,16.90
2017-07-16T21:23:48.943Z,16.80
2017-07-16T21:26:17.381Z,16.80
2017-07-16T21:28:45.909Z,16.80
2017-07-16T21:31:14.618Z,16.80
2017-07-16T21:33:43.964Z,16.80
2017-07-16T21:36:12.372Z,16.80
2017-07-16T21:38:40.857Z,16.80
2017-07-16T21:41:09.283Z,16.90
2017-07-16T21:43:38.487Z,17.00
2017-07-16T21:46:06.931Z,16.80
2017-07-16T21:48:35.348Z,16.90
2017-07-16T21:51:04.560Z,16.80
2017-07-16T21:53:33.010Z,16.70
2017-07-16T21:56:02.186Z,16.70
2017-07-16T21:58:30.623Z,16.70
2017-07-16T22:00:59.055Z,16.80
2017-07-16T22:03:28.269Z,16.70
2017-07-16T22:05:57.418Z,16.70
2017-07-16T22:08:25.854Z,16.70
2017-07-16T22:10:54.277Z,16.40
2017-07-16T22:13:22.736Z,16.20
2017-07-16T22:15:51.919Z,16.10
2017-07-16T22:18:20.430Z,16.10
2017-07-16T22:20:48.980Z,16.10
2017-07-16T22:23:18.185Z,16.10
2017-07-16T22:25:46.627Z,16.10
2017-07-16T22:28:15.052Z,16.00
2017-07-16T22:30:43.509Z,15.90
2017-07-16T22:33:11.976Z,15.80
2017-07-16T22:35:40.558Z,15.80
2017-07-16T22:38:08.967Z,15.80
2017-07-16T22:40:38.168Z,15.80
2017-07-16T22:43:07.435Z,15.80
2017-07-16T22:45:35.864Z,15.80
2017-07-16T22:48:05.065Z,13.00
2017-07-16T22:50:33.774Z,15.70
2017-07-16T22:53:02.233Z,15.70
2017-07-16T22:55:31.412Z,15.70
2017-07-16T22:58:00.636Z,15.70
2017-07-16T23:00:29.062Z,15.70
2017-07-16T23:02:57.517Z,15.80
2017-07-16T23:05:25.951Z,15.80
2017-07-16T23:07:55.134Z,15.70
2017-07-16T23:10:23.589Z,15.70
2017-07-16T23:12:53.032Z,15.60
2017-07-16T23:15:21.666Z,15.60
2017-07-16T23:17:50.371Z,15.50
2017-07-16T23:20:19.566Z,11.80
2017-07-16T23:22:47.989Z,15.50
2017-07-16T23:25:16.456Z,15.40
2017-07-16T23:27:44.883Z,15.40
2017-07-16T23:30:13.331Z,15.20
2017-07-16T23:32:41.746Z,15.20
2017-07-16T23:35:10.199Z,15.20
2017-07-16T23:37:38.627Z,15.20
2017-07-16T23:40:07.063Z,15.20
2017-07-16T23:42:35.490Z,15.20
2017-07-16T23:45:03.928Z,15.10
2017-07-16T23:47:33.127Z,15.20
2017-07-16T23:50:02.327Z,15.20
2017-07-16T23:52:32.468Z,15.20
2017-07-16T23:55:01.097Z,15.10
2017-07-16T23:57:29.588Z,15.10
2017-07-16T23:59:58.452Z,15.00
